Terminal Aerodrome Forecast
Issued by NWS

Home | Current Version | Previous Version | Text Only | Print | Product List | Glossary Off
Versions: 1 2 3 4 5 6 7 8 9 10 11 12 13 14 15

000
FTUS43 KICT 261740
TAFRSL
TAF
KRSL 261740Z 2618/2718 33022G30KT P6SM SCT040 BKN080
     FM262300 36007KT P6SM SKC
     FM270300 10007KT P6SM SCT080=

USA.gov is the U.S. government's official web portal to all federal, state and local government web resources and services.